createdAt,value
2018-12-24T00:00:00.825Z,93.86
2018-12-24T00:01:08.111Z,93.82
2018-12-24T00:02:14.798Z,93.79
2018-12-24T00:03:21.695Z,93.75
2018-12-24T00:04:28.434Z,93.72
2018-12-24T00:05:35.377Z,93.69
2018-12-24T00:06:42.213Z,93.67
2018-12-24T00:07:49.100Z,93.64
2018-12-24T00:08:56.002Z,93.64
2018-12-24T00:10:02.621Z,93.59
2018-12-24T00:11:09.409Z,93.54
2018-12-24T00:12:16.164Z,93.53
2018-12-24T00:13:23.455Z,93.49
2018-12-24T00:14:29.943Z,93.43
2018-12-24T00:15:37.199Z,93.40
2018-12-24T00:16:43.994Z,93.35
2018-12-24T00:17:50.800Z,93.30
2018-12-24T00:18:57.472Z,93.26
2018-12-24T00:20:04.749Z,93.24
2018-12-24T00:21:11.404Z,93.20
2018-12-24T00:22:18.468Z,93.15
2018-12-24T00:23:25.684Z,93.13
2018-12-24T00:24:32.408Z,93.08
2018-12-24T00:25:39.097Z,93.03
2018-12-24T00:26:45.968Z,93.01
2018-12-24T00:27:52.736Z,92.97
2018-12-24T00:28:59.506Z,92.94
2018-12-24T00:30:06.488Z,92.89
2018-12-24T00:31:14.309Z,92.84
2018-12-24T00:32:20.193Z,92.81
2018-12-24T00:33:26.866Z,92.75
2018-12-24T00:34:33.506Z,92.72
2018-12-24T00:35:40.880Z,92.69
2018-12-24T00:36:47.536Z,92.67
2018-12-24T00:37:54.816Z,92.58
2018-12-24T00:39:01.509Z,92.54
2018-12-24T00:40:08.357Z,92.53
2018-12-24T00:41:15.008Z,92.48
2018-12-24T00:42:21.861Z,92.42
2018-12-24T00:43:28.549Z,92.39
2018-12-24T00:44:35.355Z,92.35
2018-12-24T00:45:42.277Z,92.32
2018-12-24T00:46:48.849Z,92.30
2018-12-24T00:47:56.017Z,92.29
2018-12-24T00:49:02.809Z,92.28
2018-12-24T00:50:09.541Z,92.26
2018-12-24T00:51:16.305Z,92.21
2018-12-24T00:52:23.201Z,92.14
2018-12-24T00:53:29.939Z,92.10
2018-12-24T00:54:36.740Z,92.08
2018-12-24T00:55:43.365Z,92.04
2018-12-24T00:56:50.658Z,92.00
2018-12-24T00:57:57.316Z,91.97
2018-12-24T00:59:04.482Z,91.91
2018-12-24T01:00:11.361Z,91.88
2018-12-24T01:01:18.007Z,91.83
2018-12-24T01:02:25.161Z,91.79
2018-12-24T01:03:31.792Z,91.78
2018-12-24T01:04:39.037Z,91.71
2018-12-24T01:05:45.791Z,91.65
2018-12-24T01:06:52.545Z,91.62
2018-12-24T01:07:59.648Z,91.58
2018-12-24T01:09:06.897Z,91.54
2018-12-24T01:10:13.589Z,91.48
2018-12-24T01:11:20.333Z,91.40
2018-12-24T01:12:27.096Z,91.36
2018-12-24T01:13:33.848Z,91.28
2018-12-24T01:14:40.548Z,91.19
2018-12-24T01:15:47.729Z,91.13
2018-12-24T01:16:54.466Z,91.02
2018-12-24T01:18:01.129Z,90.98
2018-12-24T01:19:08.306Z,90.88
2018-12-24T01:20:14.977Z,90.77
2018-12-24T01:21:22.236Z,90.67
2018-12-24T01:22:28.837Z,90.58
2018-12-24T01:23:36.168Z,90.49
2018-12-24T01:24:42.739Z,90.38
2018-12-24T01:25:50.044Z,90.26
2018-12-24T01:26:56.693Z,90.20
2018-12-24T01:28:03.952Z,90.05
2018-12-24T01:29:10.614Z,89.94
2018-12-24T01:30:17.857Z,89.82
2018-12-24T01:31:24.997Z,89.66
2018-12-24T01:32:31.220Z,89.50
2018-12-24T01:33:38.184Z,89.31
2018-12-24T01:34:44.861Z,89.08
2018-12-24T01:35:51.638Z,88.83
2018-12-24T01:36:58.186Z,88.56
2018-12-24T01:38:05.469Z,88.22
2018-12-24T01:39:12.117Z,87.89
2018-12-24T01:40:18.794Z,87.58
2018-12-24T01:41:25.548Z,87.24
2018-12-24T01:42:33.508Z,86.92
2018-12-24T01:43:39.469Z,86.61
2018-12-24T01:44:46.269Z,86.33
2018-12-24T01:45:53.013Z,86.10
2018-12-24T01:46:59.776Z,85.91
2018-12-24T01:48:06.633Z,85.65
2018-12-24T01:49:13.316Z,85.43
2018-12-24T01:50:20.609Z,85.23
2018-12-24T01:51:27.318Z,84.98
2018-12-24T01:52:34.025Z,84.79
2018-12-24T01:53:41.257Z,84.62
2018-12-24T01:54:48.085Z,84.40
2018-12-24T01:55:55.217Z,84.16
2018-12-24T01:57:03.252Z,84.01
2018-12-24T01:58:08.996Z,83.83
2018-12-24T01:59:16.902Z,83.61
2018-12-24T02:00:23.012Z,83.41
2018-12-24T02:01:29.684Z,83.24
2018-12-24T02:02:36.548Z,82.99
2018-12-24T02:03:43.404Z,82.81
2018-12-24T02:04:50.181Z,82.64
2018-12-24T02:05:56.776Z,82.44
2018-12-24T02:07:04.052Z,82.25
2018-12-24T02:08:10.676Z,82.11
2018-12-24T02:09:17.968Z,81.92
2018-12-24T02:10:24.948Z,81.75
2018-12-24T02:11:31.712Z,81.57
2018-12-24T02:12:42.413Z,81.43
2018-12-24T02:13:45.353Z,81.26
2018-12-24T02:14:52.228Z,81.09
2018-12-24T02:15:59.092Z,80.94
2018-12-24T02:17:06.052Z,80.83
2018-12-24T02:18:12.818Z,80.59
2018-12-24T02:19:19.556Z,80.39
2018-12-24T02:20:26.254Z,80.22
2018-12-24T02:21:33.008Z,80.04
2018-12-24T02:22:39.879Z,79.90
2018-12-24T02:23:46.621Z,79.76
2018-12-24T02:24:53.477Z,79.62
2018-12-24T02:26:00.156Z,79.48
2018-12-24T02:27:07.362Z,79.29
2018-12-24T02:28:14.098Z,79.09
2018-12-24T02:29:20.921Z,78.94
2018-12-24T02:30:27.647Z,78.88
2018-12-24T02:31:34.371Z,78.78
2018-12-24T02:32:41.073Z,78.63
2018-12-24T02:33:47.828Z,78.56
2018-12-24T02:34:54.677Z,78.48
2018-12-24T02:36:01.360Z,78.34
2018-12-24T02:37:08.681Z,78.19
2018-12-24T02:38:15.618Z,78.07
2018-12-24T02:39:22.389Z,77.95
2018-12-24T02:40:29.239Z,77.84
2018-12-24T02:41:36.093Z,77.67
2018-12-24T02:42:52.061Z,77.51
2018-12-24T02:43:49.677Z,77.35
2018-12-24T02:44:56.499Z,77.26
2018-12-24T02:46:03.155Z,77.13
2018-12-24T02:47:10.182Z,77.04
2018-12-24T02:48:16.984Z,76.92
2018-12-24T02:49:23.865Z,76.84
2018-12-24T02:50:30.619Z,76.71
2018-12-24T02:51:37.387Z,76.67
2018-12-24T02:52:44.184Z,76.61
2018-12-24T02:53:51.035Z,76.57
2018-12-24T02:54:57.710Z,76.40
2018-12-24T02:56:04.497Z,76.36
2018-12-24T02:57:11.578Z,76.30
2018-12-24T02:58:18.302Z,76.26
2018-12-24T02:59:25.165Z,76.21
2018-12-24T03:00:31.913Z,76.20
2018-12-24T03:01:38.701Z,76.12
2018-12-24T03:02:45.573Z,76.00
2018-12-24T03:03:52.428Z,75.84
2018-12-24T03:04:59.128Z,75.71
2018-12-24T03:06:05.953Z,75.72
2018-12-24T03:07:12.607Z,75.70
2018-12-24T03:08:19.901Z,75.62
2018-12-24T03:09:26.668Z,75.56
2018-12-24T03:10:33.301Z,75.42
2018-12-24T03:11:40.506Z,75.34
2018-12-24T03:12:47.372Z,75.29
2018-12-24T03:13:54.225Z,75.25
2018-12-24T03:15:00.868Z,75.15
2018-12-24T03:16:07.984Z,75.10
2018-12-24T03:17:14.730Z,75.09
2018-12-24T03:18:21.608Z,75.08
2018-12-24T03:19:28.358Z,75.03
2018-12-24T03:20:35.226Z,74.93
2018-12-24T03:21:42.105Z,74.90
2018-12-24T03:22:48.870Z,74.90
2018-12-24T03:23:55.538Z,74.91
2018-12-24T03:25:02.307Z,74.93
2018-12-24T03:26:09.132Z,74.88
2018-12-24T03:27:16.342Z,74.85
2018-12-24T03:28:23.192Z,74.75
2018-12-24T03:29:29.866Z,74.61
2018-12-24T03:30:36.723Z,74.56
2018-12-24T03:31:43.379Z,74.44
2018-12-24T03:32:50.885Z,74.39
2018-12-24T03:33:57.337Z,74.32
2018-12-24T03:35:04.190Z,74.30
2018-12-24T03:36:10.840Z,74.32
2018-12-24T03:37:17.534Z,74.35
2018-12-24T03:38:24.294Z,74.26
2018-12-24T03:39:31.029Z,74.19
2018-12-24T03:40:37.580Z,74.12
2018-12-24T03:41:44.885Z,74.06
2018-12-24T03:42:51.598Z,74.00
2018-12-24T03:43:58.277Z,73.99
2018-12-24T03:45:05.228Z,73.91
2018-12-24T03:46:11.798Z,73.85
2018-12-24T03:47:19.041Z,73.84
2018-12-24T03:48:25.788Z,73.78
2018-12-24T03:49:32.449Z,73.73
2018-12-24T03:50:39.827Z,73.75
2018-12-24T03:51:46.478Z,73.81
2018-12-24T03:52:53.749Z,73.81
2018-12-24T03:54:00.451Z,73.83
2018-12-24T03:55:07.288Z,73.77
2018-12-24T03:56:14.037Z,73.82
2018-12-24T03:57:21.331Z,73.83
2018-12-24T03:58:28.006Z,73.82
2018-12-24T03:59:35.302Z,73.73
2018-12-24T04:00:42.021Z,73.71
2018-12-24T04:01:48.789Z,73.74
2018-12-24T04:02:55.672Z,73.79
2018-12-24T04:04:02.549Z,73.82
2018-12-24T04:05:09.182Z,73.86
2018-12-24T04:06:16.369Z,73.86
2018-12-24T04:07:23.228Z,73.85
2018-12-24T04:08:30.424Z,73.93
2018-12-24T04:09:37.305Z,73.92
2018-12-24T04:10:43.927Z,73.87
2018-12-24T04:11:51.215Z,73.84
2018-12-24T04:12:57.886Z,73.89
2018-12-24T04:14:04.862Z,73.89
2018-12-24T04:15:11.630Z,73.87
2018-12-24T04:16:18.479Z,73.85
2018-12-24T04:17:25.452Z,73.80
2018-12-24T04:18:32.241Z,73.74
2018-12-24T04:19:38.972Z,73.69
2018-12-24T04:20:45.778Z,73.70
2018-12-24T04:21:52.513Z,73.72
2018-12-24T04:22:59.284Z,73.77
2018-12-24T04:24:06.053Z,73.74
2018-12-24T04:25:12.834Z,73.70
2018-12-24T04:26:19.598Z,73.68
2018-12-24T04:27:26.323Z,73.66
2018-12-24T04:28:33.506Z,73.70
2018-12-24T04:29:40.374Z,73.72
2018-12-24T04:30:47.063Z,73.71
2018-12-24T04:31:53.900Z,73.71
2018-12-24T04:33:00.568Z,73.71
2018-12-24T04:34:07.341Z,73.80
2018-12-24T04:35:13.942Z,73.87
2018-12-24T04:36:21.142Z,73.97
2018-12-24T04:37:27.725Z,73.93
2018-12-24T04:38:34.913Z,73.95
2018-12-24T04:39:41.596Z,73.96
2018-12-24T04:40:48.366Z,73.99
2018-12-24T04:41:55.245Z,73.99
2018-12-24T04:43:01.969Z,74.00
2018-12-24T04:44:08.742Z,74.03
2018-12-24T04:45:15.592Z,74.11
2018-12-24T04:46:22.283Z,74.14
2018-12-24T04:47:29.033Z,74.17
2018-12-24T04:48:35.788Z,74.19
2018-12-24T04:49:42.557Z,74.21
2018-12-24T04:50:49.241Z,74.27
2018-12-24T04:51:55.880Z,74.33
2018-12-24T04:53:03.164Z,74.36
2018-12-24T04:54:09.943Z,74.36
2018-12-24T04:55:16.796Z,74.36
2018-12-24T04:56:23.573Z,74.42
2018-12-24T04:57:30.220Z,74.45
2018-12-24T04:58:37.505Z,74.50
2018-12-24T04:59:44.260Z,74.55
2018-12-24T05:00:51.044Z,74.59
2018-12-24T05:01:57.693Z,74.63
2018-12-24T05:03:04.854Z,74.70
2018-12-24T05:04:12.049Z,74.74
2018-12-24T05:05:18.697Z,74.74
2018-12-24T05:06:25.893Z,74.66
2018-12-24T05:07:32.549Z,74.68
2018-12-24T05:08:39.304Z,74.73
2018-12-24T05:09:46.481Z,74.71
2018-12-24T05:10:53.170Z,74.67
2018-12-24T05:11:59.817Z,74.71
2018-12-24T05:13:07.186Z,74.76
2018-12-24T05:14:13.965Z,74.80
2018-12-24T05:15:20.705Z,74.83
2018-12-24T05:16:29.324Z,74.88
2018-12-24T05:17:34.449Z,74.93
2018-12-24T05:18:41.624Z,74.93
2018-12-24T05:19:48.801Z,74.95
2018-12-24T05:20:55.564Z,74.90
2018-12-24T05:22:02.279Z,74.92
2018-12-24T05:23:09.151Z,74.98
2018-12-24T05:24:15.689Z,75.06
2018-12-24T05:25:22.938Z,75.11
2018-12-24T05:26:29.719Z,75.15
2018-12-24T05:27:36.453Z,75.17
2018-12-24T05:28:43.129Z,75.19
2018-12-24T05:29:50.345Z,75.23
2018-12-24T05:30:56.965Z,75.19
2018-12-24T05:32:04.265Z,75.18
2018-12-24T05:33:10.861Z,75.20
2018-12-24T05:34:18.069Z,75.22
2018-12-24T05:35:24.777Z,75.22
2018-12-24T05:36:31.501Z,75.24
2018-12-24T05:37:38.281Z,75.25
2018-12-24T05:38:45.037Z,75.30
2018-12-24T05:39:51.788Z,75.34
2018-12-24T05:40:58.474Z,75.39
2018-12-24T05:42:05.269Z,75.41
2018-12-24T05:43:11.929Z,75.46
2018-12-24T05:44:19.148Z,75.46
2018-12-24T05:45:25.785Z,75.52
2018-12-24T05:46:32.480Z,75.54
2018-12-24T05:47:39.273Z,75.57
2018-12-24T05:48:46.033Z,75.62
2018-12-24T05:49:52.785Z,75.70
2018-12-24T05:50:59.662Z,75.72
2018-12-24T05:52:06.357Z,75.74
2018-12-24T05:53:12.997Z,75.74
2018-12-24T05:54:20.256Z,75.75
2018-12-24T05:55:26.811Z,75.80
2018-12-24T05:56:33.960Z,75.79
2018-12-24T05:57:41.113Z,75.84
2018-12-24T05:58:48.245Z,75.87
2018-12-24T05:59:55.704Z,75.90
2018-12-24T06:01:02.393Z,75.93
2018-12-24T06:02:09.652Z,75.97
2018-12-24T06:03:16.448Z,76.01
2018-12-24T06:04:23.227Z,76.07
2018-12-24T06:05:30.062Z,76.13
2018-12-24T06:06:36.825Z,76.13
2018-12-24T06:07:43.497Z,76.15
2018-12-24T06:08:50.373Z,76.17
2018-12-24T06:09:57.112Z,76.21
2018-12-24T06:11:03.884Z,76.25
2018-12-24T06:12:10.646Z,76.19
2018-12-24T06:13:17.333Z,76.15
2018-12-24T06:14:24.172Z,76.19
2018-12-24T06:15:30.836Z,76.21
2018-12-24T06:16:37.620Z,76.21
2018-12-24T06:17:44.369Z,76.29
2018-12-24T06:18:51.257Z,76.34
2018-12-24T06:19:57.860Z,76.36
2018-12-24T06:21:05.245Z,76.32
2018-12-24T06:22:12.430Z,76.33
2018-12-24T06:23:18.989Z,76.29
2018-12-24T06:24:25.727Z,76.33
2018-12-24T06:25:32.962Z,76.37
2018-12-24T06:26:39.728Z,76.44
2018-12-24T06:27:46.380Z,76.50
2018-12-24T06:28:53.668Z,76.44
2018-12-24T06:30:00.328Z,76.44
2018-12-24T06:31:07.552Z,76.45
2018-12-24T06:32:13.876Z,76.46
2018-12-24T06:33:20.654Z,76.48
2018-12-24T06:34:27.373Z,76.51
2018-12-24T06:35:34.146Z,76.55
2018-12-24T06:36:41.319Z,76.56
2018-12-24T06:37:47.937Z,76.55
2018-12-24T06:38:55.173Z,76.57
2018-12-24T06:40:01.770Z,76.59
2018-12-24T06:41:08.689Z,76.57
2018-12-24T06:42:15.461Z,76.56
2018-12-24T06:43:22.217Z,76.56
2018-12-24T06:44:28.900Z,76.57
2018-12-24T06:45:35.646Z,76.52
2018-12-24T06:46:42.417Z,76.48
2018-12-24T06:47:49.067Z,76.47
2018-12-24T06:48:56.262Z,76.49
2018-12-24T06:50:02.909Z,76.54
2018-12-24T06:51:09.692Z,76.61
2018-12-24T06:52:16.358Z,76.69
2018-12-24T06:53:23.208Z,76.77
2018-12-24T06:54:29.896Z,76.79
2018-12-24T06:55:36.744Z,76.79
2018-12-24T06:56:43.511Z,76.84
2018-12-24T06:57:50.388Z,76.85
2018-12-24T06:58:57.008Z,76.85
2018-12-24T07:00:03.826Z,76.87
2018-12-24T07:01:10.675Z,76.85
2018-12-24T07:02:17.330Z,76.87
2018-12-24T07:03:24.605Z,76.81
2018-12-24T07:04:31.290Z,76.78
2018-12-24T07:05:38.053Z,76.78
2018-12-24T07:06:44.797Z,76.76
2018-12-24T07:07:51.574Z,76.67
2018-12-24T07:08:58.200Z,76.63
2018-12-24T07:10:05.416Z,76.60
2018-12-24T07:11:12.260Z,76.64
2018-12-24T07:12:19.636Z,76.67
2018-12-24T07:13:26.229Z,76.69
2018-12-24T07:14:33.424Z,76.71
2018-12-24T07:15:40.341Z,76.71
2018-12-24T07:16:47.008Z,76.74
2018-12-24T07:17:53.794Z,76.78
2018-12-24T07:19:00.540Z,76.84
2018-12-24T07:20:07.426Z,76.87
2018-12-24T07:21:14.124Z,76.93
2018-12-24T07:22:21.352Z,76.89
2018-12-24T07:23:28.161Z,76.91
2018-12-24T07:24:35.107Z,76.88
2018-12-24T07:25:41.773Z,76.87
2018-12-24T07:26:48.818Z,76.90
2018-12-24T07:27:56.004Z,76.92
2018-12-24T07:29:02.685Z,76.97
2018-12-24T07:30:09.353Z,76.99
2018-12-24T07:31:17.854Z,76.96
2018-12-24T07:32:23.269Z,76.97
2018-12-24T07:33:29.813Z,76.98
2018-12-24T07:34:37.093Z,76.97
2018-12-24T07:35:43.905Z,76.96
2018-12-24T07:36:51.148Z,76.95
2018-12-24T07:37:57.830Z,76.95
2018-12-24T07:39:04.882Z,76.96
2018-12-24T07:40:11.528Z,76.94
2018-12-24T07:41:18.714Z,76.97
2018-12-24T07:42:25.583Z,76.96
2018-12-24T07:43:32.238Z,76.89
2018-12-24T07:44:40.029Z,76.88
2018-12-24T07:45:46.205Z,76.87
2018-12-24T07:46:53.377Z,76.84
2018-12-24T07:47:59.996Z,76.81
2018-12-24T07:49:07.292Z,76.81
2018-12-24T07:50:13.911Z,76.83
2018-12-24T07:51:21.124Z,76.84
2018-12-24T07:52:27.792Z,76.83
2018-12-24T07:53:35.330Z,76.87
2018-12-24T07:54:41.524Z,76.87
2018-12-24T07:55:48.160Z,76.86
2018-12-24T07:56:55.268Z,76.84
2018-12-24T07:58:02.441Z,76.87
2018-12-24T07:59:09.094Z,76.88
2018-12-24T08:00:16.224Z,76.88
2018-12-24T08:01:23.441Z,76.87
2018-12-24T08:02:30.210Z,76.91
2018-12-24T08:03:37.380Z,76.96
2018-12-24T08:04:44.272Z,76.98
2018-12-24T08:05:50.996Z,77.04
2018-12-24T08:06:57.792Z,77.07
2018-12-24T08:08:04.489Z,77.13
2018-12-24T08:09:11.163Z,77.18
2018-12-24T08:10:17.881Z,77.19
2018-12-24T08:11:24.648Z,77.21
2018-12-24T08:12:31.401Z,77.24
2018-12-24T08:13:38.542Z,77.29
2018-12-24T08:14:45.175Z,77.36
2018-12-24T08:15:52.544Z,77.42
2018-12-24T08:16:59.177Z,77.40
2018-12-24T08:18:06.457Z,77.40
2018-12-24T08:19:13.116Z,77.39
2018-12-24T08:20:20.085Z,77.43
2018-12-24T08:21:27.309Z,77.47
2018-12-24T08:22:33.920Z,77.46
2018-12-24T08:23:41.146Z,77.47
2018-12-24T08:24:48.177Z,77.49
2018-12-24T08:25:56.376Z,77.51
2018-12-24T08:27:02.121Z,77.57
2018-12-24T08:28:08.885Z,77.57
2018-12-24T08:29:15.536Z,77.59
2018-12-24T08:30:22.689Z,77.63
2018-12-24T08:31:30.193Z,77.71
2018-12-24T08:32:37.064Z,77.77
2018-12-24T08:33:43.739Z,77.75
2018-12-24T08:34:50.598Z,77.80
2018-12-24T08:35:57.289Z,77.88
2018-12-24T08:37:04.021Z,77.94
2018-12-24T08:38:10.685Z,77.99
2018-12-24T08:39:17.368Z,78.06
2018-12-24T08:40:24.109Z,78.12
2018-12-24T08:41:30.953Z,78.20
2018-12-24T08:42:37.590Z,78.20
2018-12-24T08:43:44.825Z,78.26
2018-12-24T08:44:51.581Z,78.29
2018-12-24T08:45:58.361Z,78.30
2018-12-24T08:47:05.254Z,78.33
2018-12-24T08:48:11.902Z,78.37
2018-12-24T08:49:18.845Z,78.42
2018-12-24T08:50:25.981Z,78.44
2018-12-24T08:51:33.148Z,78.48
2018-12-24T08:52:40.272Z,78.49
2018-12-24T08:53:47.449Z,78.54
2018-12-24T08:54:54.141Z,78.59
2018-12-24T08:56:00.774Z,78.60
2018-12-24T08:57:07.557Z,78.62
2018-12-24T08:58:14.201Z,78.68
2018-12-24T08:59:20.968Z,78.73
2018-12-24T09:00:27.725Z,78.77
2018-12-24T09:01:34.941Z,78.81
2018-12-24T09:02:41.665Z,78.84
2018-12-24T09:03:48.310Z,78.87
2018-12-24T09:04:55.403Z,78.88
2018-12-24T09:06:02.589Z,78.89
2018-12-24T09:07:09.409Z,78.96
2018-12-24T09:08:15.986Z,79.01
2018-12-24T09:09:23.217Z,79.08
2018-12-24T09:10:29.764Z,79.16
2018-12-24T09:11:37.128Z,79.25
2018-12-24T09:12:43.761Z,79.31
2018-12-24T09:13:51.066Z,79.37
2018-12-24T09:14:57.709Z,79.38
2018-12-24T09:16:04.995Z,79.44
2018-12-24T09:17:11.679Z,79.48
2018-12-24T09:18:18.378Z,79.51
2018-12-24T09:19:25.500Z,79.54
2018-12-24T09:20:32.268Z,79.58
2018-12-24T09:21:39.630Z,79.62
2018-12-24T09:22:46.588Z,79.66
2018-12-24T09:23:53.281Z,79.69
2018-12-24T09:25:00.037Z,79.74
2018-12-24T09:26:06.808Z,79.79
2018-12-24T09:27:13.593Z,79.87
2018-12-24T09:28:20.372Z,79.92
2018-12-24T09:29:27.448Z,79.95
2018-12-24T09:30:34.173Z,80.03
2018-12-24T09:31:40.873Z,80.06
2018-12-24T09:32:47.966Z,80.09
2018-12-24T09:33:55.280Z,80.17
2018-12-24T09:35:01.961Z,80.22
2018-12-24T09:36:08.717Z,80.29
2018-12-24T09:37:15.313Z,80.39
2018-12-24T09:38:22.576Z,80.45
2018-12-24T09:39:29.223Z,80.52
2018-12-24T09:40:36.764Z,80.57
2018-12-24T09:41:43.368Z,80.63
2018-12-24T09:42:51.692Z,80.72
2018-12-24T09:43:56.781Z,80.77
2018-12-24T09:45:03.860Z,80.84
2018-12-24T09:46:11.068Z,80.89
2018-12-24T09:47:17.600Z,80.92
2018-12-24T09:48:24.888Z,80.94
2018-12-24T09:49:31.638Z,81.02
2018-12-24T09:50:38.397Z,81.07
2018-12-24T09:51:45.179Z,81.10
2018-12-24T09:52:52.048Z,81.12
2018-12-24T09:53:58.597Z,81.13
2018-12-24T09:55:05.981Z,81.14
2018-12-24T09:56:12.757Z,81.12
2018-12-24T09:57:19.424Z,81.14
2018-12-24T09:58:26.188Z,81.17
2018-12-24T09:59:32.943Z,81.20
2018-12-24T10:00:39.696Z,81.25
2018-12-24T10:01:46.474Z,81.33
2018-12-24T10:02:53.336Z,81.37
2018-12-24T10:04:02.993Z,81.39
2018-12-24T10:05:07.379Z,81.40
2018-12-24T10:06:14.413Z,81.46
2018-12-24T10:07:21.301Z,81.52
2018-12-24T10:08:27.988Z,81.62
2018-12-24T10:09:34.841Z,81.73
2018-12-24T10:10:41.472Z,81.81
2018-12-24T10:11:48.633Z,81.76
2018-12-24T10:12:55.853Z,81.72
2018-12-24T10:14:02.732Z,81.68
2018-12-24T10:15:09.612Z,81.74
2018-12-24T10:16:16.415Z,81.74
2018-12-24T10:17:23.333Z,81.73
2018-12-24T10:18:30.013Z,81.71
2018-12-24T10:19:36.890Z,81.75
2018-12-24T10:20:43.659Z,81.75
2018-12-24T10:21:50.494Z,81.74
2018-12-24T10:22:57.167Z,81.75
2018-12-24T10:24:04.546Z,81.80
2018-12-24T10:25:11.303Z,81.76
2018-12-24T10:26:18.067Z,81.79
2018-12-24T10:27:25.132Z,81.80
2018-12-24T10:28:31.906Z,81.80
2018-12-24T10:29:38.695Z,81.78
2018-12-24T10:30:45.893Z,81.82
2018-12-24T10:31:52.537Z,81.85
2018-12-24T10:32:59.970Z,81.87
2018-12-24T10:34:06.682Z,81.94
2018-12-24T10:35:13.701Z,82.02
2018-12-24T10:36:20.599Z,82.12
2018-12-24T10:37:27.354Z,82.19
2018-12-24T10:38:34.225Z,82.28
2018-12-24T10:39:40.927Z,82.33
2018-12-24T10:40:47.762Z,82.27
2018-12-24T10:41:54.932Z,82.26
2018-12-24T10:43:01.657Z,82.24
2018-12-24T10:44:08.625Z,82.21
2018-12-24T10:45:16.903Z,82.15
2018-12-24T10:46:22.222Z,82.14
2018-12-24T10:47:29.109Z,82.16
2018-12-24T10:48:36.212Z,82.11
2018-12-24T10:49:43.226Z,82.14
2018-12-24T10:50:50.082Z,82.19
2018-12-24T10:51:56.830Z,82.20
2018-12-24T10:53:04.012Z,82.14
2018-12-24T10:54:10.335Z,82.20
2018-12-24T10:55:17.369Z,82.22
2018-12-24T10:56:24.147Z,82.26
2018-12-24T10:57:30.801Z,82.24
2018-12-24T10:58:37.651Z,82.19
2018-12-24T10:59:45.954Z,82.15
2018-12-24T11:00:51.761Z,82.08
2018-12-24T11:01:57.920Z,82.00
2018-12-24T11:03:04.788Z,81.95
2018-12-24T11:04:11.578Z,81.92
2018-12-24T11:05:18.361Z,81.88
2018-12-24T11:06:27.551Z,81.89
2018-12-24T11:07:31.822Z,81.88
2018-12-24T11:08:38.659Z,81.88
2018-12-24T11:09:45.430Z,81.90
2018-12-24T11:10:52.392Z,81.89
2018-12-24T11:11:59.106Z,81.94
2018-12-24T11:13:06.105Z,81.96
2018-12-24T11:14:13.100Z,81.92
2018-12-24T11:15:25.039Z,81.83
2018-12-24T11:16:29.670Z,81.84
2018-12-24T11:17:33.881Z,81.91
2018-12-24T11:18:40.550Z,81.99
2018-12-24T11:19:47.336Z,81.96
2018-12-24T11:20:54.122Z,81.83
2018-12-24T11:22:00.827Z,81.75
2018-12-24T11:23:07.912Z,81.67
2018-12-24T11:24:14.676Z,81.62
2018-12-24T11:25:21.603Z,81.58
2018-12-24T11:26:28.318Z,81.51
2018-12-24T11:27:35.160Z,81.42
2018-12-24T11:28:41.925Z,81.40
2018-12-24T11:29:48.713Z,81.39
2018-12-24T11:30:55.460Z,81.32
2018-12-24T11:32:02.285Z,81.26
2018-12-24T11:33:09.050Z,81.23
2018-12-24T11:34:15.824Z,81.17
2018-12-24T11:35:22.581Z,81.15
2018-12-24T11:36:29.376Z,81.11
2018-12-24T11:37:36.254Z,81.09
2018-12-24T11:38:42.945Z,81.11
2018-12-24T11:39:49.746Z,81.07
2018-12-24T11:40:56.848Z,80.93
2018-12-24T11:42:03.745Z,80.90
2018-12-24T11:43:10.641Z,80.85
2018-12-24T11:44:17.322Z,80.88
2018-12-24T11:45:24.107Z,80.81
2018-12-24T11:46:30.813Z,80.70
2018-12-24T11:47:37.660Z,80.62
2018-12-24T11:48:44.715Z,80.51
2018-12-24T11:49:51.543Z,80.49
2018-12-24T11:50:58.205Z,80.56
2018-12-24T11:52:05.051Z,80.57
2018-12-24T11:53:13.007Z,80.57
2018-12-24T11:54:21.005Z,80.54
2018-12-24T11:55:26.191Z,80.47
2018-12-24T11:56:32.926Z,80.45
2018-12-24T11:57:39.761Z,80.46
2018-12-24T11:58:46.526Z,80.41
2018-12-24T11:59:53.357Z,80.29
2018-12-24T12:01:00.129Z,80.21
2018-12-24T12:02:10.124Z,80.19
2018-12-24T12:03:13.710Z,80.15
2018-12-24T12:04:20.485Z,80.10
2018-12-24T12:05:27.328Z,79.99
2018-12-24T12:06:34.286Z,79.82
2018-12-24T12:07:40.983Z,79.72
2018-12-24T12:08:48.361Z,79.53
2018-12-24T12:09:55.393Z,79.36
2018-12-24T12:11:02.179Z,79.24
2018-12-24T12:12:08.922Z,79.19
2018-12-24T12:13:15.692Z,79.09
2018-12-24T12:14:22.465Z,78.95
2018-12-24T12:15:29.799Z,78.86
2018-12-24T12:16:36.314Z,78.79
2018-12-24T12:17:43.168Z,78.77
2018-12-24T12:18:49.917Z,78.74
2018-12-24T12:19:56.598Z,78.67
2018-12-24T12:21:03.870Z,78.57
2018-12-24T12:22:10.538Z,78.54
2018-12-24T12:23:17.256Z,78.49
2018-12-24T12:24:24.226Z,78.42
2018-12-24T12:25:31.153Z,78.32
2018-12-24T12:26:40.376Z,78.22
2018-12-24T12:27:44.674Z,78.10
2018-12-24T12:28:51.542Z,78.02
2018-12-24T12:29:58.198Z,77.92
2018-12-24T12:31:05.038Z,77.81
2018-12-24T12:32:11.732Z,77.72
2018-12-24T12:33:18.509Z,77.58
2018-12-24T12:34:25.276Z,77.46
2018-12-24T12:35:32.029Z,77.34
2018-12-24T12:36:39.130Z,77.33
2018-12-24T12:37:46.400Z,77.30
2018-12-24T12:38:52.746Z,77.21
2018-12-24T12:39:59.601Z,77.11
2018-12-24T12:41:06.973Z,77.12
2018-12-24T12:42:13.457Z,77.19
2018-12-24T12:43:20.735Z,77.15
2018-12-24T12:44:26.974Z,76.99
2018-12-24T12:45:33.851Z,76.96
2018-12-24T12:46:41.282Z,76.93
2018-12-24T12:47:47.538Z,76.91
2018-12-24T12:48:54.356Z,76.89
2018-12-24T12:50:01.160Z,76.86
2018-12-24T12:51:08.153Z,76.73
2018-12-24T12:52:14.841Z,76.63
2018-12-24T12:53:25.401Z,76.68
2018-12-24T12:54:28.627Z,76.61
2018-12-24T12:55:35.570Z,76.65
2018-12-24T12:56:42.090Z,76.56
2018-12-24T12:57:48.913Z,76.49
2018-12-24T12:58:55.801Z,76.49
2018-12-24T13:00:03.090Z,76.50
2018-12-24T13:01:09.639Z,76.33
2018-12-24T13:02:16.568Z,76.33
2018-12-24T13:03:23.721Z,76.27
2018-12-24T13:04:30.389Z,76.29
2018-12-24T13:05:37.224Z,76.25
2018-12-24T13:06:44.051Z,76.24
2018-12-24T13:07:50.999Z,76.22
2018-12-24T13:08:57.772Z,76.03
2018-12-24T13:10:04.740Z,75.93
2018-12-24T13:11:11.667Z,75.89
2018-12-24T13:12:20.559Z,75.92
2018-12-24T13:13:25.302Z,75.77
2018-12-24T13:14:32.302Z,75.68
2018-12-24T13:15:39.041Z,75.80
2018-12-24T13:16:46.244Z,75.77
2018-12-24T13:17:52.841Z,75.56
2018-12-24T13:19:04.655Z,75.49
2018-12-24T13:20:06.858Z,75.46
2018-12-24T13:21:13.929Z,75.51
2018-12-24T13:22:20.947Z,75.40
2018-12-24T13:23:27.575Z,75.27
2018-12-24T13:24:34.418Z,75.30
2018-12-24T13:25:41.133Z,75.25
2018-12-24T13:26:47.890Z,75.21
2018-12-24T13:27:54.685Z,75.23
2018-12-24T13:29:01.482Z,75.32
2018-12-24T13:30:08.337Z,75.35
2018-12-24T13:31:15.065Z,75.32
2018-12-24T13:32:23.318Z,75.21
2018-12-24T13:33:28.733Z,75.16
2018-12-24T13:34:36.112Z,75.25
2018-12-24T13:35:42.307Z,75.18
2018-12-24T13:36:49.038Z,75.05
2018-12-24T13:37:55.817Z,75.09
2018-12-24T13:39:02.870Z,75.13
2018-12-24T13:40:09.797Z,75.09
2018-12-24T13:41:16.501Z,75.07
2018-12-24T13:42:23.398Z,75.03
2018-12-24T13:43:30.211Z,75.04
2018-12-24T13:44:37.079Z,74.99
2018-12-24T13:45:48.622Z,74.82
2018-12-24T13:46:51.050Z,74.77
2018-12-24T13:47:57.865Z,74.87
2018-12-24T13:49:05.089Z,74.97
2018-12-24T13:50:12.862Z,75.04
2018-12-24T13:51:18.595Z,74.99
2018-12-24T13:52:25.701Z,74.98
2018-12-24T13:53:32.174Z,74.92
2018-12-24T13:54:39.063Z,74.84
2018-12-24T13:55:45.901Z,74.83
2018-12-24T13:56:52.689Z,74.76
2018-12-24T13:57:59.582Z,74.70
2018-12-24T13:59:06.628Z,74.66
2018-12-24T14:00:13.433Z,74.66
2018-12-24T14:01:20.647Z,74.63
2018-12-24T14:02:27.441Z,74.66
2018-12-24T14:03:34.383Z,74.71
2018-12-24T14:04:41.434Z,74.73
2018-12-24T14:05:48.189Z,74.59
2018-12-24T14:06:55.142Z,74.42
2018-12-24T14:08:02.951Z,74.37
2018-12-24T14:09:09.252Z,74.42
2018-12-24T14:10:15.896Z,74.43
2018-12-24T14:11:22.802Z,74.44
2018-12-24T14:12:29.513Z,74.46
2018-12-24T14:13:36.424Z,74.50
2018-12-24T14:14:43.355Z,74.49
2018-12-24T14:15:50.437Z,74.56
2018-12-24T14:16:57.191Z,74.59
2018-12-24T14:18:04.032Z,74.59
2018-12-24T14:19:11.140Z,74.60
2018-12-24T14:20:18.072Z,74.63